Nong Khai, Thailand
Current Conditions -  °F | °C
As of 10:30 PM on Friday 21 Nov 2014 (Local Time) from VLVT Reporting Station
Haze Haze  
Wind Chill: 23°   Ceiling: Unl
Heat Index: 23°   Visibility: 1.8mi
Dew Point: 20°   Wind: 2mph
Humidity: 83%   Direction: 90°E
Pressure: 29.91"   Gusts: NA
Location:  17.88°N, 102.74°E
Report Text: VLVT 211530Z 09002KT 3000 BR NSC 23/20 Q1013 NOSIG
Loading
Personal Weather Stations






























Interactive Weather Map New forecast layout! Learn more

10-Day Weather Forecast

Advertisements
Track Severe Weather on mobile